Terminal Aerodrome Forecast
Issued by NWS

Home | Current Version | Previous Version | Text Only | Print | Product List | Glossary Off
Versions: 1 2 3 4 5 6 7 8 9 10 11 12 13 14 15 16 17 18 19 20 21 22 23 24

248
FTUS43 KABR 261602 AAB
TAFPIR
TAF AMD
KPIR 261602Z 2616/2712 02011KT P6SM VCSH FEW010 OVC019
     FM261700 06011KT P6SM VCSH OVC010
     FM262200 06014KT P6SM -SHRA OVC015
     FM270000 05014KT P6SM -SHRA OVC008
     FM270200 05014KT 5SM SHRA BR OVC003=

USA.gov is the U.S. government's official web portal to all federal, state and local government web resources and services.